Accueil
METAR-TAF:

METAR-TAF

Aéroports :

Aéroport de Deauville-Normandie

Deauville, France

latitude: 49-21-55N, longitude: 000-09-16E, altitude: 146 m

Observation

Le bulletin a été fait il y a 11 minutes, à 21:00 UTC
Vent 2 kt de sud
Température 10°C
Humidité 93%
Pression 1030 hPa
Visibilité 10 km ou plus
pas de nuages en-dessous de 1500 mètres et pas de cumulonimbus.

METAR: LFRG 062100Z AUTO 19002KT CAVOK 10/09 Q1030

Heure: 23:11 (21:11 UTC)

Prévision

Le bulletin a été fait il y a 7 heures et 11 minutes, à 14:00 UTC
Prévision valable du 06 à 15 UTC au 06 à 24 UTC
Vent 5 kt de direction variable
Visibilité 10 km ou plus
Quelques nuages à une hauteur de 4000 ft
Probabilité 30% :
Temporairement
du 06 à 22 UTC au 06 à 24 UTC
Visibilité: 4000 m
brume

TAF: LFRG 061400Z 0615/0624 VRB05KT 9999 FEW040 PROB30 TEMPO 0622/0624 4000 BR

Observations et prévisions météorologiques de plus de 4000 aéroports (messages METAR et TAF).

Les stations disponibles sont représentées par des disques jaunes et rouges sur la carte.

Passer la souris dessus pour voir le nom de la station.

Cliquer dessus pour voir les observations et prévisions météorologiques.

Pour changer de carte: cliquez sur les boutons verts avec une croix noire pour zoomer, sur le bouton vert avec un tiret pour effectuer un zoom arrière, ou sur les flèches vertes pour les cartes adjacentes.


METAR-TAF: